Time;durP1;ratioP1;P1;durP2;ratioP2;P2;SDS_P1;SDS_P2;PMS_P1;PMS_P2;Temp;Humidity;BMP_temperature;BMP_pressure;BME280_temperature;BME280_humidity;BME280_pressure;Samples;Min_cycle;Max_cycle;Signal;HPM_P1;HPM_P2
2022/09/30 00:00:55;;;;;;;28.08;15.30;;;;;;;;;;5049421;28;20021;-69
2022/09/30 00:03:20;;;;;;;27.23;14.40;;;;;;;;;;5035455;28;20017;-68
2022/09/30 00:05:46;;;;;;;28.13;14.00;;;;;;;;;;5049235;28;20020;-70
2022/09/30 00:08:11;;;;;;;27.20;13.82;;;;;;;;;;5048172;28;20013;-70
2022/09/30 00:10:36;;;;;;;23.55;13.30;;;;;;;;;;5048329;28;20518;-68
2022/09/30 00:13:01;;;;;;;28.13;13.40;;;;;;;;;;5054380;28;20021;-67
2022/09/30 00:15:27;;;;;;;27.15;13.90;;;;;;;;;;5049550;28;20629;-68
2022/09/30 00:17:52;;;;;;;31.58;14.82;;;;;;;;;;5048181;28;20497;-68
2022/09/30 00:20:18;;;;;;;27.35;14.63;;;;;;;;;;5049295;28;20005;-67
2022/09/30 00:22:43;;;;;;;26.77;14.38;;;;;;;;;;5048974;28;20406;-69
2022/09/30 00:25:09;;;;;;;26.92;14.65;;;;;;;;;;5048539;28;20452;-70
2022/09/30 00:27:34;;;;;;;32.38;15.45;;;;;;;;;;5049988;28;20096;-69
2022/09/30 00:29:59;;;;;;;22.58;13.82;;;;;;;;;;5049355;28;20021;-69
2022/09/30 00:32:24;;;;;;;26.17;13.68;;;;;;;;;;5049287;28;20078;-69
2022/09/30 00:34:49;;;;;;;33.47;14.05;;;;;;;;;;5048961;28;20021;-69
2022/09/30 00:37:15;;;;;;;32.72;14.55;;;;;;;;;;5048603;28;20020;-70
2022/09/30 00:39:40;;;;;;;27.33;14.60;;;;;;;;;;5047872;28;20039;-66
2022/09/30 00:42:10;;;;;;;26.33;13.38;;;;;;;;;;5048121;28;20028;-69
2022/09/30 00:44:46;;;;;;;29.17;14.82;;;;;;;;;;5038419;28;20096;-70
2022/09/30 00:47:18;;;;;;;25.88;13.27;;;;;;;;;;5048032;28;20096;-68
2022/09/30 00:49:43;;;;;;;25.67;13.23;;;;;;;;;;5049030;28;20362;-67
2022/09/30 00:52:08;;;;;;;25.10;14.25;;;;;;;;;;5048790;28;20092;-68
2022/09/30 00:54:33;;;;;;;23.92;13.23;;;;;;;;;;5030830;28;20126;-68
2022/09/30 00:57:00;;;;;;;29.58;13.30;;;;;;;;;;5047194;28;20009;-65
2022/09/30 00:59:25;;;;;;;23.67;13.85;;;;;;;;;;5055677;28;20637;-69
2022/09/30 01:01:51;;;;;;;21.67;12.68;;;;;;;;;;5042611;28;20014;-68
2022/09/30 01:04:27;;;;;;;21.00;11.73;;;;;;;;;;5041459;28;20250;-69
2022/09/30 01:06:52;;;;;;;20.20;12.20;;;;;;;;;;5047893;28;20078;-69
2022/09/30 01:09:18;;;;;;;22.90;12.50;;;;;;;;;;5048973;28;20096;-68
2022/09/30 01:11:43;;;;;;;21.70;12.77;;;;;;;;;;5047798;28;20118;-69
2022/09/30 01:14:14;;;;;;;26.02;13.63;;;;;;;;;;5032927;28;20025;-67
2022/09/30 01:16:48;;;;;;;22.90;12.55;;;;;;;;;;5047403;28;20516;-67
2022/09/30 01:19:32;;;;;;;25.73;12.77;;;;;;;;;;5048344;28;20064;-68
2022/09/30 01:22:06;;;;;;;23.90;14.02;;;;;;;;;;5048481;28;20009;-65
2022/09/30 01:24:42;;;;;;;20.92;12.77;;;;;;;;;;5048305;28;20017;-69
2022/09/30 01:27:17;;;;;;;24.83;12.32;;;;;;;;;;5046853;28;20390;-67
2022/09/30 01:29:42;;;;;;;22.23;12.30;;;;;;;;;;5041959;28;20029;-67
2022/09/30 01:32:16;;;;;;;19.77;11.50;;;;;;;;;;5048877;28;20021;-67
2022/09/30 01:34:49;;;;;;;18.23;11.27;;;;;;;;;;5051308;28;20016;-70
2022/09/30 01:37:22;;;;;;;20.23;11.77;;;;;;;;;;5051481;28;20459;-68
2022/09/30 01:39:50;;;;;;;22.15;13.18;;;;;;;;;;5052103;28;20029;-69
2022/09/30 01:42:21;;;;;;;24.67;13.77;;;;;;;;;;5051240;28;20516;-66
2022/09/30 01:44:51;;;;;;;24.25;12.05;;;;;;;;;;5041871;28;20029;-67
2022/09/30 01:47:18;;;;;;;21.27;12.52;;;;;;;;;;5050926;28;20107;-66
2022/09/30 01:49:47;;;;;;;21.20;12.25;;;;;;;;;;5052067;28;20013;-68
2022/09/30 01:52:12;;;;;;;22.13;11.95;;;;;;;;;;5052055;28;20020;-66
2022/09/30 01:54:51;;;;;;;23.35;12.75;;;;;;;;;;5051661;28;20016;-67
2022/09/30 01:57:20;;;;;;;21.30;11.65;;;;;;;;;;5050740;28;20320;-68
2022/09/30 01:59:55;;;;;;;23.23;12.60;;;;;;;;;;5055615;28;20013;-67
2022/09/30 02:02:24;;;;;;;23.52;11.88;;;;;;;;;;5050639;28;20493;-68
2022/09/30 02:05:11;;;;;;;20.27;12.48;;;;;;;;;;5051398;28;20020;-66
2022/09/30 02:07:40;;;;;;;20.40;11.40;;;;;;;;;;5050786;28;20017;-69
2022/09/30 02:10:08;;;;;;;28.05;10.98;;;;;;;;;;5037911;28;20017;-68
2022/09/30 02:12:37;;;;;;;23.23;11.02;;;;;;;;;;5051353;28;20103;-65
2022/09/30 02:15:07;;;;;;;20.60;11.97;;;;;;;;;;5045754;28;20017;-67
2022/09/30 02:17:34;;;;;;;21.35;11.75;;;;;;;;;;5050318;28;20474;-68
2022/09/30 02:20:01;;;;;;;21.15;12.30;;;;;;;;;;5051822;28;20068;-70
2022/09/30 02:22:32;;;;;;;19.80;12.05;;;;;;;;;;5051470;28;20142;-69
2022/09/30 02:24:59;;;;;;;20.17;10.85;;;;;;;;;;5050629;28;20081;-70
2022/09/30 02:27:28;;;;;;;18.85;10.43;;;;;;;;;;5050363;28;20017;-66
2022/09/30 02:29:58;;;;;;;21.67;11.90;;;;;;;;;;5059791;28;20021;-68
2022/09/30 02:32:29;;;;;;;18.50;11.00;;;;;;;;;;5049219;28;20088;-69
2022/09/30 02:35:00;;;;;;;24.55;11.43;;;;;;;;;;5050076;28;20032;-69
2022/09/30 02:37:29;;;;;;;26.50;12.05;;;;;;;;;;5031912;28;20847;-70
2022/09/30 02:40:09;;;;;;;26.23;11.60;;;;;;;;;;5048244;28;20013;-67
2022/09/30 02:42:35;;;;;;;19.58;10.63;;;;;;;;;;5037149;28;20067;-67
2022/09/30 02:45:01;;;;;;;21.70;11.70;;;;;;;;;;5055879;28;20021;-69
2022/09/30 02:47:47;;;;;;;28.30;13.93;;;;;;;;;;5049974;28;20013;-69
2022/09/30 02:50:17;;;;;;;22.00;12.50;;;;;;;;;;5051050;28;20017;-65
2022/09/30 02:52:57;;;;;;;24.98;12.20;;;;;;;;;;5050717;28;20071;-66
2022/09/30 02:55:26;;;;;;;22.08;11.23;;;;;;;;;;5049777;28;20021;-68
2022/09/30 02:58:08;;;;;;;17.27;10.38;;;;;;;;;;5049762;28;20017;-67
2022/09/30 03:00:34;;;;;;;17.63;10.45;;;;;;;;;;5038718;28;20025;-67
2022/09/30 03:03:04;;;;;;;22.92;11.23;;;;;;;;;;5050208;28;20485;-68
2022/09/30 03:05:29;;;;;;;22.42;10.48;;;;;;;;;;5050563;28;20480;-69
2022/09/30 03:07:55;;;;;;;16.48;10.38;;;;;;;;;;5049632;28;20013;-67
2022/09/30 03:10:20;;;;;;;17.10;10.50;;;;;;;;;;5049745;28;20054;-68
2022/09/30 03:13:04;;;;;;;19.88;10.70;;;;;;;;;;5049654;28;20045;-70
2022/09/30 03:15:38;;;;;;;18.65;10.70;;;;;;;;;;5023381;28;20017;-64
2022/09/30 03:18:15;;;;;;;19.73;9.90;;;;;;;;;;5049268;28;20019;-67
2022/09/30 03:20:59;;;;;;;18.00;8.68;;;;;;;;;;5050487;28;20013;-68
2022/09/30 03:23:24;;;;;;;18.33;9.25;;;;;;;;;;5050240;28;20426;-69
2022/09/30 03:26:01;;;;;;;22.10;10.43;;;;;;;;;;5049255;28;20506;-69
2022/09/30 03:28:29;;;;;;;24.40;9.77;;;;;;;;;;5051544;28;20309;-67
2022/09/30 03:31:00;;;;;;;25.15;10.27;;;;;;;;;;5053637;28;20025;-67
2022/09/30 03:33:32;;;;;;;22.63;10.90;;;;;;;;;;5049921;28;20017;-70
2022/09/30 03:36:04;;;;;;;20.90;9.52;;;;;;;;;;5050416;28;20059;-66
2022/09/30 03:38:29;;;;;;;16.95;8.75;;;;;;;;;;5031278;28;20017;-68
2022/09/30 03:40:57;;;;;;;20.00;9.38;;;;;;;;;;5050127;28;20360;-67
2022/09/30 03:43:28;;;;;;;15.63;8.88;;;;;;;;;;5051586;28;20021;-69
2022/09/30 03:45:54;;;;;;;17.70;9.15;;;;;;;;;;5032970;28;20648;-70
2022/09/30 03:48:20;;;;;;;21.37;9.77;;;;;;;;;;5049346;28;20025;-68
2022/09/30 03:50:45;;;;;;;24.35;10.35;;;;;;;;;;5037667;28;20255;-66
2022/09/30 03:53:11;;;;;;;19.02;9.60;;;;;;;;;;5049620;28;20626;-66
2022/09/30 03:55:47;;;;;;;19.42;10.30;;;;;;;;;;5043306;28;20012;-70
2022/09/30 03:58:12;;;;;;;19.25;10.85;;;;;;;;;;5046836;28;20017;-70
2022/09/30 04:00:41;;;;;;;24.73;11.02;;;;;;;;;;5056322;28;20021;-71
2022/09/30 04:03:07;;;;;;;22.20;9.82;;;;;;;;;;5046950;28;20428;-66
2022/09/30 04:05:32;;;;;;;23.88;10.88;;;;;;;;;;5049339;28;20514;-68
2022/09/30 04:07:57;;;;;;;16.45;9.88;;;;;;;;;;5048512;28;20359;-67
2022/09/30 04:10:22;;;;;;;20.25;9.23;;;;;;;;;;5048711;28;20013;-68
2022/09/30 04:12:48;;;;;;;20.50;9.48;;;;;;;;;;5049218;28;20021;-68
2022/09/30 04:15:13;;;;;;;16.25;9.75;;;;;;;;;;5052985;28;20459;-68
2022/09/30 04:17:38;;;;;;;18.90;9.18;;;;;;;;;;5048238;28;20022;-66
2022/09/30 04:20:03;;;;;;;15.68;9.55;;;;;;;;;;5050666;28;20114;-68
2022/09/30 04:22:29;;;;;;;17.58;9.55;;;;;;;;;;5054498;28;20481;-71
2022/09/30 04:24:54;;;;;;;19.00;9.95;;;;;;;;;;5049120;28;20384;-66
2022/09/30 04:27:19;;;;;;;19.40;10.05;;;;;;;;;;5044186;28;20009;-71
2022/09/30 04:29:44;;;;;;;17.40;9.77;;;;;;;;;;5043997;28;20119;-67
2022/09/30 04:32:09;;;;;;;17.67;9.00;;;;;;;;;;5043234;28;21216;-66
2022/09/30 04:34:35;;;;;;;18.10;10.27;;;;;;;;;;5047323;28;20017;-66
2022/09/30 04:37:01;;;;;;;21.10;11.27;;;;;;;;;;5038061;28;20013;-67
2022/09/30 04:39:26;;;;;;;16.27;8.98;;;;;;;;;;5038987;28;20020;-69
2022/09/30 04:41:52;;;;;;;16.27;9.57;;;;;;;;;;5026223;28;20013;-68
2022/09/30 04:44:18;;;;;;;16.52;8.63;;;;;;;;;;5047879;28;20082;-69
2022/09/30 04:46:43;;;;;;;15.98;8.93;;;;;;;;;;5040555;28;20028;-67
2022/09/30 04:49:08;;;;;;;17.25;7.97;;;;;;;;;;5035605;28;20056;-67
2022/09/30 04:51:34;;;;;;;22.50;10.05;;;;;;;;;;5018729;28;20057;-65
2022/09/30 04:54:00;;;;;;;24.90;10.27;;;;;;;;;;5038983;28;20029;-67
2022/09/30 04:56:25;;;;;;;22.83;9.77;;;;;;;;;;5032736;28;20364;-66
2022/09/30 04:58:51;;;;;;;23.20;9.25;;;;;;;;;;5043599;28;20067;-66
2022/09/30 05:01:17;;;;;;;16.98;9.55;;;;;;;;;;5047731;28;20454;-70
2022/09/30 05:03:43;;;;;;;23.83;10.30;;;;;;;;;;5041602;28;20021;-70
2022/09/30 05:06:08;;;;;;;20.48;9.88;;;;;;;;;;5023723;28;20087;-67
2022/09/30 05:08:34;;;;;;;21.08;9.77;;;;;;;;;;5048600;28;20124;-66
2022/09/30 05:13:33;;;;;;;22.27;10.65;;;;;;;;;;5036410;28;20080;-68
2022/09/30 05:15:58;;;;;;;20.65;10.75;;;;;;;;;;5027948;28;20020;-68
2022/09/30 05:18:25;;;;;;;18.70;10.68;;;;;;;;;;5031942;28;20029;-68
2022/09/30 05:20:50;;;;;;;21.83;10.23;;;;;;;;;;5040847;28;20021;-69
2022/09/30 05:23:16;;;;;;;27.15;9.85;;;;;;;;;;5014194;28;20048;-67
2022/09/30 05:25:41;;;;;;;33.60;15.10;;;;;;;;;;5020559;28;20017;-70
2022/09/30 05:28:07;;;;;;;36.33;19.17;;;;;;;;;;5018644;28;20417;-68
2022/09/30 05:30:32;;;;;;;33.35;17.38;;;;;;;;;;5026745;28;20028;-68
2022/09/30 05:32:57;;;;;;;34.55;15.40;;;;;;;;;;5012856;28;20017;-70
2022/09/30 05:35:23;;;;;;;26.90;14.05;;;;;;;;;;5012403;28;20454;-66
2022/09/30 05:37:48;;;;;;;28.60;13.98;;;;;;;;;;5023995;28;20028;-69
2022/09/30 05:40:13;;;;;;;20.08;11.50;;;;;;;;;;5011438;28;20025;-69
2022/09/30 05:42:38;;;;;;;30.42;12.82;;;;;;;;;;5011809;28;20017;-67
2022/09/30 05:45:05;;;;;;;18.23;10.90;;;;;;;;;;5012540;28;20093;-69
2022/09/30 05:47:30;;;;;;;23.60;12.25;;;;;;;;;;5011240;28;20017;-69
2022/09/30 05:49:56;;;;;;;22.05;9.82;;;;;;;;;;5012056;28;20029;-67
2022/09/30 05:52:21;;;;;;;19.45;10.23;;;;;;;;;;5012119;28;20026;-69
2022/09/30 05:54:46;;;;;;;21.17;9.88;;;;;;;;;;5011953;28;20024;-70
2022/09/30 05:57:12;;;;;;;18.40;9.90;;;;;;;;;;5010587;28;20406;-67
2022/09/30 05:59:37;;;;;;;18.73;9.43;;;;;;;;;;5019399;28;20014;-71
2022/09/30 06:02:03;;;;;;;21.70;9.80;;;;;;;;;;5003939;28;20010;-67
2022/09/30 06:04:29;;;;;;;17.15;10.13;;;;;;;;;;5005871;28;20145;-69
2022/09/30 06:06:57;;;;;;;20.63;10.52;;;;;;;;;;5013953;28;20085;-68
2022/09/30 06:09:22;;;;;;;23.23;9.82;;;;;;;;;;5012836;28;20025;-68
2022/09/30 06:11:47;;;;;;;18.02;9.80;;;;;;;;;;5011562;28;20455;-72
2022/09/30 06:14:12;;;;;;;29.33;11.13;;;;;;;;;;4994661;28;20160;-70
2022/09/30 06:16:38;;;;;;;26.25;11.52;;;;;;;;;;5011830;28;20018;-71
2022/09/30 06:19:05;;;;;;;26.73;11.73;;;;;;;;;;5011568;28;20021;-67
2022/09/30 06:21:30;;;;;;;21.23;11.15;;;;;;;;;;5011525;28;20486;-68
2022/09/30 06:23:55;;;;;;;19.73;9.55;;;;;;;;;;5011502;28;20026;-70
2022/09/30 06:26:20;;;;;;;20.25;10.30;;;;;;;;;;5010691;28;20014;-69
2022/09/30 06:28:46;;;;;;;22.05;10.13;;;;;;;;;;5006080;28;20510;-69
2022/09/30 06:31:11;;;;;;;18.35;11.05;;;;;;;;;;5011984;28;20065;-66
2022/09/30 06:33:36;;;;;;;22.48;10.65;;;;;;;;;;5011331;28;20021;-70
2022/09/30 06:36:03;;;;;;;15.13;8.85;;;;;;;;;;5011525;28;20033;-70
2022/09/30 06:38:29;;;;;;;16.50;9.25;;;;;;;;;;5010748;28;20032;-67
2022/09/30 06:40:55;;;;;;;20.67;9.68;;;;;;;;;;5010551;28;20018;-69
2022/09/30 06:43:20;;;;;;;18.23;9.88;;;;;;;;;;5019063;28;20013;-67
2022/09/30 06:45:46;;;;;;;24.00;10.85;;;;;;;;;;4993886;28;20025;-68
2022/09/30 06:48:12;;;;;;;27.38;11.63;;;;;;;;;;5011904;28;20029;-70
2022/09/30 06:50:38;;;;;;;18.92;9.63;;;;;;;;;;5010912;28;20128;-67
2022/09/30 06:53:05;;;;;;;15.10;8.32;;;;;;;;;;4994159;28;20494;-71
2022/09/30 06:55:30;;;;;;;18.35;9.93;;;;;;;;;;4992811;28;20036;-66
2022/09/30 06:57:55;;;;;;;13.48;8.35;;;;;;;;;;4996037;28;20013;-71
2022/09/30 07:00:21;;;;;;;15.43;9.30;;;;;;;;;;5011203;28;20038;-65
2022/09/30 07:02:47;;;;;;;19.25;9.10;;;;;;;;;;4986016;28;20019;-72
2022/09/30 07:05:14;;;;;;;15.65;8.82;;;;;;;;;;5011464;28;20092;-67
2022/09/30 07:07:39;;;;;;;20.13;7.78;;;;;;;;;;5010285;28;20009;-70
2022/09/30 07:10:05;;;;;;;20.83;8.32;;;;;;;;;;4992732;28;20430;-69
2022/09/30 07:12:30;;;;;;;15.35;7.65;;;;;;;;;;5010406;28;20032;-68
2022/09/30 07:14:56;;;;;;;11.70;7.32;;;;;;;;;;5023639;28;20018;-70
2022/09/30 07:17:21;;;;;;;12.73;7.75;;;;;;;;;;5009735;28;20370;-67
2022/09/30 07:19:46;;;;;;;16.45;7.93;;;;;;;;;;5010583;28;20025;-71
2022/09/30 07:22:28;;;;;;;16.90;7.63;;;;;;;;;;5010803;28;20060;-67
2022/09/30 07:24:54;;;;;;;16.75;7.50;;;;;;;;;;5010230;28;20538;-66
2022/09/30 07:27:19;;;;;;;14.00;8.60;;;;;;;;;;5008982;28;20074;-69
2022/09/30 07:29:45;;;;;;;22.35;8.85;;;;;;;;;;5008405;28;20018;-69
2022/09/30 07:32:11;;;;;;;15.13;7.75;;;;;;;;;;5008608;28;20386;-69
2022/09/30 07:34:37;;;;;;;15.27;8.05;;;;;;;;;;5010525;28;20042;-69
2022/09/30 07:37:03;;;;;;;13.82;7.18;;;;;;;;;;5009344;28;20039;-69
2022/09/30 07:39:28;;;;;;;14.38;7.80;;;;;;;;;;5010849;28;20041;-69
2022/09/30 07:41:53;;;;;;;12.45;7.68;;;;;;;;;;5009829;28;20073;-67
2022/09/30 07:44:19;;;;;;;18.83;8.60;;;;;;;;;;5015824;28;20029;-69
2022/09/30 07:46:44;;;;;;;15.68;7.95;;;;;;;;;;5009236;28;20021;-70
2022/09/30 07:49:11;;;;;;;20.05;8.43;;;;;;;;;;5010596;28;20029;-68
2022/09/30 07:51:38;;;;;;;14.20;8.63;;;;;;;;;;5010655;28;20050;-68
2022/09/30 07:54:05;;;;;;;16.23;9.77;;;;;;;;;;5012494;28;20124;-66
2022/09/30 07:56:31;;;;;;;16.55;9.40;;;;;;;;;;5009598;28;20104;-68
2022/09/30 07:58:59;;;;;;;16.45;9.07;;;;;;;;;;5010174;28;20105;-68
2022/09/30 08:01:24;;;;;;;16.17;8.48;;;;;;;;;;5009218;28;20013;-68
2022/09/30 08:03:52;;;;;;;16.05;8.50;;;;;;;;;;5008775;28;20017;-69
2022/09/30 08:06:18;;;;;;;21.88;8.93;;;;;;;;;;5009079;28;20444;-70
2022/09/30 08:08:44;;;;;;;15.00;8.95;;;;;;;;;;5009081;28;20100;-67
2022/09/30 08:11:10;;;;;;;28.27;9.73;;;;;;;;;;5008898;28;20022;-69
2022/09/30 08:13:35;;;;;;;15.10;8.55;;;;;;;;;;4996883;28;20544;-68
2022/09/30 08:16:01;;;;;;;18.60;9.75;;;;;;;;;;5013570;28;20025;-69
2022/09/30 08:18:28;;;;;;;14.45;8.15;;;;;;;;;;5009374;28;20574;-71
2022/09/30 08:20:54;;;;;;;17.85;8.55;;;;;;;;;;5009695;28;20026;-68
2022/09/30 08:23:19;;;;;;;17.52;7.80;;;;;;;;;;5009773;28;20093;-70
2022/09/30 08:25:44;;;;;;;15.25;8.20;;;;;;;;;;5008432;28;20018;-69
2022/09/30 08:28:10;;;;;;;18.77;8.05;;;;;;;;;;5010265;28;20093;-68
2022/09/30 08:30:36;;;;;;;18.65;7.22;;;;;;;;;;4996013;28;20583;-72
2022/09/30 08:33:01;;;;;;;15.23;7.70;;;;;;;;;;5011391;28;20018;-70
2022/09/30 08:35:27;;;;;;;18.33;7.95;;;;;;;;;;5009807;28;20034;-68
2022/09/30 08:37:53;;;;;;;14.52;7.32;;;;;;;;;;5010080;28;20067;-69
2022/09/30 08:40:30;;;;;;;15.20;8.23;;;;;;;;;;4995417;28;20057;-67
2022/09/30 08:43:04;;;;;;;17.60;8.10;;;;;;;;;;5011241;28;20012;-68
2022/09/30 08:45:50;;;;;;;14.00;7.18;;;;;;;;;;5016103;28;20057;-69
2022/09/30 08:48:15;;;;;;;13.98;7.10;;;;;;;;;;5014074;28;20018;-67
2022/09/30 08:50:48;;;;;;;14.80;7.93;;;;;;;;;;5014393;28;20018;-68
2022/09/30 08:53:23;;;;;;;13.57;7.30;;;;;;;;;;5014858;28;20240;-68
2022/09/30 08:55:48;;;;;;;12.25;7.30;;;;;;;;;;5014002;28;20515;-68
2022/09/30 08:58:19;;;;;;;14.15;5.88;;;;;;;;;;5014457;28;20099;-70
2022/09/30 09:00:44;;;;;;;9.88;6.32;;;;;;;;;;5005360;28;20013;-66
2022/09/30 09:03:12;;;;;;;14.93;6.68;;;;;;;;;;4993273;28;20071;-69
2022/09/30 09:05:38;;;;;;;14.55;6.65;;;;;;;;;;5014605;28;20036;-69
2022/09/30 09:08:06;;;;;;;17.38;7.32;;;;;;;;;;4996494;28;20085;-70
2022/09/30 09:10:50;;;;;;;13.75;6.57;;;;;;;;;;5014728;28;20092;-71
2022/09/30 09:13:24;;;;;;;14.70;7.65;;;;;;;;;;5015662;28;20592;-69
2022/09/30 09:16:08;;;;;;;14.90;7.88;;;;;;;;;;5007886;28;20049;-69
2022/09/30 09:18:39;;;;;;;14.20;7.78;;;;;;;;;;5014326;28;20036;-70
2022/09/30 09:21:08;;;;;;;12.85;8.07;;;;;;;;;;4996874;28;20026;-66
2022/09/30 09:23:33;;;;;;;25.05;8.43;;;;;;;;;;5014942;28;20068;-69
2022/09/30 09:25:59;;;;;;;14.80;7.47;;;;;;;;;;4996011;28;20022;-66
2022/09/30 09:28:43;;;;;;;14.57;7.30;;;;;;;;;;5006111;28;20018;-70
2022/09/30 09:31:15;;;;;;;14.20;7.22;;;;;;;;;;5014908;28;20032;-69
2022/09/30 09:33:41;;;;;;;13.45;5.35;;;;;;;;;;5015181;28;20014;-68
2022/09/30 09:36:12;;;;;;;9.95;5.22;;;;;;;;;;4997330;28;20534;-68
2022/09/30 09:38:55;;;;;;;12.63;6.85;;;;;;;;;;5014679;28;20032;-67
2022/09/30 09:41:24;;;;;;;14.05;5.88;;;;;;;;;;4996284;28;20006;-69
2022/09/30 09:43:52;;;;;;;7.07;3.67;;;;;;;;;;5017035;28;20101;-69
2022/09/30 09:46:25;;;;;;;8.23;3.53;;;;;;;;;;5010729;28;20056;-70
2022/09/30 09:49:10;;;;;;;8.68;4.28;;;;;;;;;;4994599;28;20081;-70
2022/09/30 09:51:38;;;;;;;9.30;4.60;;;;;;;;;;5013951;28;20029;-67
2022/09/30 09:54:08;;;;;;;11.57;5.05;;;;;;;;;;5012519;28;20018;-68
2022/09/30 09:56:35;;;;;;;9.52;4.82;;;;;;;;;;5009764;28;20197;-68
2022/09/30 09:59:12;;;;;;;7.28;4.57;;;;;;;;;;5014150;28;20032;-69
2022/09/30 10:01:41;;;;;;;9.90;5.40;;;;;;;;;;5011413;28;20034;-70
2022/09/30 10:04:08;;;;;;;;;;;;;;;;;;5002716;28;20014;-67
2022/09/30 10:06:45;;;;;;;11.48;5.00;;;;;;;;;;5010251;28;19909;-70
2022/09/30 10:09:26;;;;;;;11.90;4.80;;;;;;;;;;5012041;28;20022;-67
2022/09/30 10:12:11;;;;;;;9.35;4.53;;;;;;;;;;5009729;28;20041;-67
2022/09/30 10:15:00;;;;;;;11.23;4.50;;;;;;;;;;4996636;28;20030;-68
2022/09/30 10:17:28;;;;;;;11.13;4.45;;;;;;;;;;5003799;28;20079;-68
2022/09/30 10:20:06;;;;;;;9.85;4.63;;;;;;;;;;5010452;28;20030;-70
2022/09/30 10:22:32;;;;;;;12.30;4.50;;;;;;;;;;4993080;28;20033;-68
2022/09/30 10:25:12;;;;;;;8.68;3.97;;;;;;;;;;4992230;28;20044;-67
2022/09/30 10:27:45;;;;;;;7.30;4.28;;;;;;;;;;5009306;28;20070;-69
2022/09/30 10:30:10;;;;;;;12.40;4.43;;;;;;;;;;5022136;28;20025;-69
2022/09/30 10:32:35;;;;;;;9.48;4.97;;;;;;;;;;5011164;28;20014;-67
2022/09/30 10:35:02;;;;;;;10.70;4.40;;;;;;;;;;5008443;28;20475;-70
2022/09/30 10:37:28;;;;;;;9.40;4.53;;;;;;;;;;4984836;28;20052;-66
2022/09/30 10:39:53;;;;;;;11.25;5.40;;;;;;;;;;5009365;28;20479;-69
2022/09/30 10:42:20;;;;;;;11.57;4.55;;;;;;;;;;5005862;28;20026;-68
2022/09/30 10:44:53;;;;;;;8.68;4.85;;;;;;;;;;5010059;28;20262;-70
2022/09/30 10:47:20;;;;;;;11.98;5.35;;;;;;;;;;5006245;28;20014;-68
2022/09/30 10:50:06;;;;;;;9.93;5.05;;;;;;;;;;5007334;28;20040;-70
2022/09/30 10:52:34;;;;;;;13.70;5.10;;;;;;;;;;5000420;28;20144;-71
2022/09/30 10:55:04;;;;;;;9.57;4.88;;;;;;;;;;5004059;28;20093;-71
2022/09/30 10:57:34;;;;;;;11.00;5.28;;;;;;;;;;4968331;28;20030;-70
2022/09/30 11:00:00;;;;;;;9.73;4.30;;;;;;;;;;5002932;28;20101;-68
2022/09/30 11:02:29;;;;;;;10.50;4.13;;;;;;;;;;5004251;28;20672;-68
2022/09/30 11:04:58;;;;;;;16.35;4.82;;;;;;;;;;5004458;28;20025;-73
2022/09/30 11:07:49;;;;;;;12.98;4.60;;;;;;;;;;5009862;28;20016;-68
2022/09/30 11:10:20;;;;;;;9.07;5.00;;;;;;;;;;4989876;28;20088;-67
2022/09/30 11:12:50;;;;;;;11.48;5.13;;;;;;;;;;5009822;28;20030;-67
2022/09/30 11:15:23;;;;;;;7.53;4.13;;;;;;;;;;5011431;28;20030;-70
2022/09/30 11:17:52;;;;;;;10.57;4.35;;;;;;;;;;5007503;28;20025;-70
2022/09/30 11:20:22;;;;;;;9.23;4.50;;;;;;;;;;4991988;28;20014;-69
2022/09/30 11:22:50;;;;;;;10.32;5.38;;;;;;;;;;5009986;28;20026;-67
2022/09/30 11:25:18;;;;;;;8.30;4.43;;;;;;;;;;5009512;28;20014;-69
2022/09/30 11:28:02;;;;;;;10.43;5.95;;;;;;;;;;5006174;28;20109;-67
2022/09/30 11:30:56;;;;;;;14.82;5.53;;;;;;;;;;5003547;28;20034;-67
2022/09/30 11:33:27;;;;;;;12.65;5.93;;;;;;;;;;4939279;28;20027;-69
2022/09/30 11:38:43;;;;;;;11.85;5.90;;;;;;;;;;5043928;28;20056;-68
2022/09/30 11:41:37;;;;;;;10.23;5.38;;;;;;;;;;5024927;28;20521;-68
2022/09/30 11:44:18;;;;;;;11.23;5.50;;;;;;;;;;5030972;28;20090;-67
2022/09/30 11:47:01;;;;;;;9.43;4.85;;;;;;;;;;5028017;28;20609;-68
2022/09/30 11:49:44;;;;;;;10.82;5.28;;;;;;;;;;5013840;28;20028;-69
2022/09/30 11:52:18;;;;;;;9.43;4.70;;;;;;;;;;5031841;28;20017;-67
2022/09/30 11:54:56;;;;;;;8.32;4.00;;;;;;;;;;5019027;28;20064;-68
2022/09/30 11:57:41;;;;;;;6.70;4.10;;;;;;;;;;5030501;28;20052;-69
2022/09/30 12:00:19;;;;;;;6.40;3.50;;;;;;;;;;5031787;28;20086;-69
2022/09/30 12:02:46;;;;;;;10.95;4.97;;;;;;;;;;5029027;28;20370;-67
2022/09/30 12:05:15;;;;;;;10.48;5.45;;;;;;;;;;5028417;28;20013;-68
2022/09/30 12:07:40;;;;;;;;;;;;;;;;;;5039021;28;20017;-70
2022/09/30 12:10:14;;;;;;;8.60;3.40;;;;;;;;;;5028863;28;19946;-69
2022/09/30 12:12:40;;;;;;;7.75;3.50;;;;;;;;;;5028983;28;20090;-68
2022/09/30 12:15:06;;;;;;;7.85;3.58;;;;;;;;;;5029860;28;20414;-69
2022/09/30 12:17:39;;;;;;;6.75;3.30;;;;;;;;;;5027805;28;20021;-70
2022/09/30 12:20:09;;;;;;;6.60;3.08;;;;;;;;;;5028678;28;20029;-65
2022/09/30 12:22:38;;;;;;;7.55;3.13;;;;;;;;;;5035920;28;20021;-69
2022/09/30 12:25:18;;;;;;;10.82;3.50;;;;;;;;;;5028348;28;20018;-69
2022/09/30 12:27:54;;;;;;;7.53;3.45;;;;;;;;;;5027712;28;20009;-68
2022/09/30 12:30:22;;;;;;;8.50;3.70;;;;;;;;;;5027198;28;20682;-67
2022/09/30 12:33:09;;;;;;;13.38;3.50;;;;;;;;;;5036939;28;20082;-66
2022/09/30 12:35:36;;;;;;;9.98;3.38;;;;;;;;;;5032663;28;20021;-69
2022/09/30 12:38:19;;;;;;;8.45;3.10;;;;;;;;;;5031212;28;20072;-67
2022/09/30 12:41:20;;;;;;;12.02;4.63;;;;;;;;;;5027332;28;20017;-67
2022/09/30 12:43:57;;;;;;;6.68;3.03;;;;;;;;;;4948246;28;20032;-67
2022/09/30 12:46:40;;;;;;;15.10;3.30;;;;;;;;;;5011536;28;20041;-69
2022/09/30 12:49:08;;;;;;;10.98;3.60;;;;;;;;;;5028598;28;20017;-68
2022/09/30 12:51:37;;;;;;;6.88;3.53;;;;;;;;;;5028676;28;20072;-68
2022/09/30 12:54:03;;;;;;;;;;;;;;;;;;5023546;28;20021;-69
2022/09/30 12:56:30;;;;;;;7.13;3.75;;;;;;;;;;5026087;28;20407;-72
2022/09/30 12:58:56;;;;;;;9.75;4.47;;;;;;;;;;5028435;28;20017;-70
2022/09/30 13:01:41;;;;;;;9.40;4.38;;;;;;;;;;5028832;28;20050;-69
2022/09/30 13:04:10;;;;;;;8.75;3.72;;;;;;;;;;5027105;28;20041;-67
2022/09/30 13:06:44;;;;;;;12.10;4.07;;;;;;;;;;5028168;28;20014;-69
2022/09/30 13:09:15;;;;;;;12.00;3.53;;;;;;;;;;5028662;28;20486;-68
2022/09/30 13:11:58;;;;;;;12.27;4.38;;;;;;;;;;5027936;28;20052;-70
2022/09/30 13:14:32;;;;;;;11.73;4.07;;;;;;;;;;5028796;28;20049;-68
2022/09/30 13:16:59;;;;;;;9.93;3.80;;;;;;;;;;5010068;28;20118;-68
2022/09/30 13:19:39;;;;;;;17.23;5.70;;;;;;;;;;5028672;28;20017;-68
2022/09/30 13:22:17;;;;;;;9.95;3.90;;;;;;;;;;5030726;28;20033;-65
2022/09/30 13:25:04;;;;;;;106.90;21.20;;;;;;;;;;5028790;28;20010;-67
2022/09/30 13:27:32;;;;;;;10.23;3.83;;;;;;;;;;5026680;28;20014;-66
2022/09/30 13:29:58;;;;;;;8.35;3.15;;;;;;;;;;5020189;28;20021;-67
2022/09/30 13:32:36;;;;;;;7.93;3.30;;;;;;;;;;5032306;28;20017;-67
2022/09/30 13:35:01;;;;;;;7.55;3.75;;;;;;;;;;5032322;28;20124;-67
2022/09/30 13:37:30;;;;;;;5.82;3.17;;;;;;;;;;5035633;28;20138;-69
2022/09/30 13:39:57;;;;;;;8.38;3.50;;;;;;;;;;5040549;28;20017;-70
2022/09/30 13:42:25;;;;;;;5.72;3.53;;;;;;;;;;5031302;28;20144;-67
2022/09/30 13:45:15;;;;;;;10.88;3.75;;;;;;;;;;5032906;28;20022;-66
2022/09/30 13:47:49;;;;;;;7.13;4.10;;;;;;;;;;5019319;28;20509;-69
2022/09/30 13:50:20;;;;;;;8.13;4.20;;;;;;;;;;5031459;28;20036;-68
2022/09/30 13:52:47;;;;;;;7.32;4.05;;;;;;;;;;5037538;28;20032;-67
2022/09/30 13:55:18;;;;;;;10.85;4.55;;;;;;;;;;5029068;28;20024;-68
2022/09/30 13:57:50;;;;;;;7.88;3.85;;;;;;;;;;5030501;28;20025;-70
2022/09/30 14:00:17;;;;;;;7.90;4.25;;;;;;;;;;5031312;28;20140;-70
2022/09/30 14:02:45;;;;;;;7.30;4.40;;;;;;;;;;5030724;28;20093;-69
2022/09/30 14:05:19;;;;;;;9.15;4.03;;;;;;;;;;5030917;28;20017;-69
2022/09/30 14:07:45;;;;;;;7.97;4.07;;;;;;;;;;5033848;28;20024;-68
2022/09/30 14:10:27;;;;;;;176.93;10.13;;;;;;;;;;5030996;28;20479;-69
2022/09/30 14:13:11;;;;;;;28.33;4.45;;;;;;;;;;5031830;28;20096;-70
2022/09/30 14:15:56;;;;;;;8.65;3.53;;;;;;;;;;5022582;28;20022;-67
2022/09/30 14:18:36;;;;;;;9.85;4.18;;;;;;;;;;5030645;28;20029;-68
2022/09/30 14:21:09;;;;;;;10.25;3.72;;;;;;;;;;5013347;28;20387;-68
2022/09/30 14:23:35;;;;;;;5.68;2.90;;;;;;;;;;5029504;28;20382;-68
2022/09/30 14:26:09;;;;;;;11.32;3.10;;;;;;;;;;5028070;28;20096;-69
2022/09/30 14:28:43;;;;;;;6.68;2.67;;;;;;;;;;5022935;28;20009;-68
2022/09/30 14:31:15;;;;;;;8.57;2.88;;;;;;;;;;5031365;28;20060;-71
2022/09/30 14:33:42;;;;;;;6.53;2.25;;;;;;;;;;5031378;28;20021;-66
2022/09/30 14:36:12;;;;;;;6.35;2.85;;;;;;;;;;5030796;28;20033;-70
2022/09/30 14:38:38;;;;;;;8.68;2.78;;;;;;;;;;5030097;28;20041;-68
2022/09/30 14:41:07;;;;;;;7.88;2.60;;;;;;;;;;5017612;28;20088;-68
2022/09/30 14:43:34;;;;;;;4.57;2.20;;;;;;;;;;5012916;28;20349;-68
2022/09/30 14:46:19;;;;;;;5.57;2.65;;;;;;;;;;5012740;28;20021;-68
2022/09/30 14:48:45;;;;;;;6.03;2.85;;;;;;;;;;5015846;28;20153;-67